createdAt,value
2023-03-07T00:01:33.160Z,1.30
2023-03-07T00:04:00.643Z,-0.70
2023-03-07T00:06:28.288Z,-0.70
2023-03-07T00:09:00.550Z,1.20
2023-03-07T00:11:28.394Z,-0.70
2023-03-07T00:13:55.814Z,-0.60
2023-03-07T00:16:24.422Z,1.40
2023-03-07T00:18:51.734Z,-0.60
2023-03-07T00:21:21.050Z,-0.60
2023-03-07T00:23:48.958Z,-0.60
2023-03-07T00:26:19.809Z,-0.50
2023-03-07T00:28:48.908Z,-0.50
2023-03-07T00:31:16.488Z,-0.50
2023-03-07T00:33:43.363Z,-0.50
2023-03-07T00:36:18.983Z,-0.60
2023-03-07T00:38:46.564Z,0.00
2023-03-07T00:41:16.141Z,-0.50
2023-03-07T00:43:43.296Z,-0.50
2023-03-07T00:46:10.505Z,-0.50
2023-03-07T00:48:39.558Z,-0.50
2023-03-07T00:51:09.241Z,-0.40
2023-03-07T00:53:36.983Z,-0.40
2023-03-07T00:56:07.547Z,-0.50
2023-03-07T00:58:36.376Z,-0.50
2023-03-07T01:01:06.201Z,-0.40
2023-03-07T01:03:34.142Z,-0.40
2023-03-07T01:06:06.738Z,0.10
2023-03-07T01:08:34.442Z,-0.40
2023-03-07T01:11:02.976Z,-0.40
2023-03-07T01:13:30.501Z,-0.40
2023-03-07T01:16:07.710Z,-0.30
2023-03-07T01:18:34.792Z,-0.30
2023-03-07T01:21:01.669Z,-0.30
2023-03-07T01:23:28.532Z,-0.30
2023-03-07T01:25:55.526Z,-0.30
2023-03-07T01:28:22.293Z,-0.20
2023-03-07T01:30:58.817Z,-0.20
2023-03-07T01:33:26.144Z,-0.20
2023-03-07T01:35:53.088Z,-0.10
2023-03-07T01:38:20.104Z,1.30
2023-03-07T01:40:47.088Z,0.00
2023-03-07T01:43:24.290Z,1.00
2023-03-07T01:45:51.585Z,0.00
2023-03-07T01:48:18.479Z,0.00
2023-03-07T01:50:45.450Z,0.10
2023-03-07T01:53:12.475Z,0.10
2023-03-07T01:55:39.409Z,0.10
2023-03-07T01:58:14.572Z,0.10
2023-03-07T02:00:43.404Z,0.10
2023-03-07T02:03:37.427Z,0.20
2023-03-07T02:06:08.999Z,0.30
2023-03-07T02:08:37.921Z,0.10
2023-03-07T02:11:06.079Z,0.10
2023-03-07T02:13:33.521Z,0.10
2023-03-07T02:16:02.579Z,0.10
2023-03-07T02:18:34.107Z,0.00
2023-03-07T02:21:25.642Z,0.00
2023-03-07T02:24:11.219Z,0.10
2023-03-07T02:26:44.231Z,0.00
2023-03-07T02:29:13.773Z,0.00
2023-03-07T02:31:41.519Z,-0.10
2023-03-07T02:34:29.574Z,-0.10
2023-03-07T02:37:05.275Z,-0.20
2023-03-07T02:39:33.033Z,-0.20
2023-03-07T02:42:04.989Z,1.80
2023-03-07T02:44:31.835Z,-0.20
2023-03-07T02:46:58.668Z,-0.30
2023-03-07T02:49:25.584Z,-0.30
2023-03-07T02:51:57.793Z,-0.30
2023-03-07T02:54:25.374Z,-0.30
2023-03-07T02:56:52.677Z,-0.30
2023-03-07T02:59:19.550Z,0.30
2023-03-07T03:01:46.470Z,-0.20
2023-03-07T03:04:13.523Z,-0.20
2023-03-07T03:06:40.351Z,-0.20
2023-03-07T03:09:07.136Z,1.80
2023-03-07T03:11:34.068Z,-0.20
2023-03-07T03:14:00.862Z,-0.30
2023-03-07T03:16:27.849Z,0.10
2023-03-07T03:18:54.717Z,-0.20
2023-03-07T03:21:21.619Z,-0.20
2023-03-07T03:23:48.477Z,-0.20
2023-03-07T03:26:15.381Z,-0.20
2023-03-07T03:28:42.286Z,-0.20
2023-03-07T03:31:15.120Z,-0.20
2023-03-07T03:33:46.651Z,-0.20
2023-03-07T03:36:16.811Z,-0.20
2023-03-07T03:38:43.922Z,-0.20
2023-03-07T03:41:12.933Z,-0.20
2023-03-07T03:43:39.784Z,-0.20
2023-03-07T03:46:06.963Z,-0.30
2023-03-07T03:48:33.855Z,-0.30
2023-03-07T03:51:11.098Z,-0.40
2023-03-07T03:53:39.630Z,-0.40
2023-03-07T03:56:15.685Z,-0.50
2023-03-07T03:58:43.307Z,1.40
2023-03-07T04:01:12.280Z,-0.50
2023-03-07T04:03:41.790Z,-0.60
2023-03-07T04:06:12.245Z,-0.60
2023-03-07T04:08:39.658Z,-0.50
2023-03-07T04:11:06.579Z,-0.50
2023-03-07T04:13:34.983Z,1.20
2023-03-07T04:16:02.660Z,-0.60
2023-03-07T04:18:29.581Z,-0.60
2023-03-07T04:20:57.268Z,-0.60
2023-03-07T04:23:25.014Z,-0.60
2023-03-07T04:25:58.262Z,-0.70
2023-03-07T04:28:27.622Z,-0.60
2023-03-07T04:30:56.529Z,-0.60
2023-03-07T04:33:23.574Z,-0.60
2023-03-07T04:35:50.615Z,-0.60
2023-03-07T04:38:17.668Z,-0.70
2023-03-07T04:40:44.461Z,-0.70
2023-03-07T04:43:11.427Z,-0.70
2023-03-07T04:45:38.543Z,-0.80
2023-03-07T04:48:05.656Z,-0.80
2023-03-07T04:50:32.970Z,-0.80
2023-03-07T04:52:59.893Z,-0.80
2023-03-07T04:55:26.702Z,1.00
2023-03-07T04:57:53.758Z,-0.80
2023-03-07T05:00:20.872Z,-0.90
2023-03-07T05:02:48.722Z,-0.90
2023-03-07T05:05:16.580Z,-0.90
2023-03-07T05:07:44.155Z,-0.90
2023-03-07T05:10:11.988Z,-0.90
2023-03-07T05:12:38.764Z,-0.90
2023-03-07T05:15:06.159Z,0.40
2023-03-07T05:17:33.100Z,-0.90
2023-03-07T05:20:00.021Z,-0.90
2023-03-07T05:22:26.871Z,-0.90
2023-03-07T05:24:53.832Z,-0.90
2023-03-07T05:27:20.790Z,-1.00
2023-03-07T05:29:47.624Z,-1.00
2023-03-07T05:32:15.555Z,-1.00
2023-03-07T05:34:42.553Z,-1.00
2023-03-07T05:37:09.799Z,-1.00
2023-03-07T05:39:36.568Z,-0.90
2023-03-07T05:42:03.532Z,-1.00
2023-03-07T05:44:32.577Z,-1.00
2023-03-07T05:47:00.645Z,-1.00
2023-03-07T05:49:27.740Z,-1.00
2023-03-07T05:51:54.622Z,-1.00
2023-03-07T05:54:21.422Z,-1.00
2023-03-07T05:56:48.306Z,-1.00
2023-03-07T05:59:15.993Z,-1.00
2023-03-07T06:01:43.389Z,-1.00
2023-03-07T06:04:10.518Z,-1.00
2023-03-07T06:06:37.431Z,-0.90
2023-03-07T06:09:05.963Z,-1.00
2023-03-07T06:11:40.796Z,-1.00
2023-03-07T06:14:09.426Z,-1.00
2023-03-07T06:16:36.797Z,-1.10
2023-03-07T06:19:07.393Z,-1.10
2023-03-07T06:21:34.611Z,-1.10
2023-03-07T06:24:01.655Z,-1.20
2023-03-07T06:26:28.942Z,-1.20
2023-03-07T06:28:55.868Z,-1.20
2023-03-07T06:31:23.084Z,-1.20
2023-03-07T06:33:51.564Z,-1.20
2023-03-07T06:36:20.626Z,-1.20
2023-03-07T06:38:51.931Z,-1.20
2023-03-07T06:41:18.856Z,-1.20
2023-03-07T06:43:45.742Z,-1.20
2023-03-07T06:46:15.197Z,-1.20
2023-03-07T06:48:42.072Z,-1.20
2023-03-07T06:51:11.062Z,-1.20
2023-03-07T06:53:44.137Z,-1.10
2023-03-07T06:56:14.489Z,-1.20
2023-03-07T06:58:48.901Z,-1.20
2023-03-07T07:01:20.807Z,-1.20
2023-03-07T07:03:47.761Z,-1.10
2023-03-07T07:06:15.050Z,-1.10
2023-03-07T07:08:42.170Z,-1.10
2023-03-07T07:11:12.720Z,-1.00
2023-03-07T07:13:39.828Z,-1.10
2023-03-07T07:16:08.346Z,-1.00
2023-03-07T07:18:38.815Z,-1.00
2023-03-07T07:21:06.398Z,-1.10
2023-03-07T07:23:33.565Z,-1.00
2023-03-07T07:26:01.796Z,-0.50
2023-03-07T07:28:29.087Z,-1.00
2023-03-07T07:30:56.204Z,-1.00
2023-03-07T07:33:23.311Z,-1.00
2023-03-07T07:35:50.553Z,-1.00
2023-03-07T07:38:18.876Z,-1.00
2023-03-07T07:40:49.464Z,-0.90
2023-03-07T07:43:17.841Z,-0.90
2023-03-07T07:45:44.879Z,-0.90
2023-03-07T07:48:11.885Z,-0.80
2023-03-07T07:50:38.858Z,-0.80
2023-03-07T07:53:05.813Z,-0.80
2023-03-07T07:55:32.990Z,-0.80
2023-03-07T07:58:00.159Z,-0.70
2023-03-07T08:00:31.045Z,-0.70
2023-03-07T08:03:01.666Z,-0.70
2023-03-07T08:05:33.414Z,-0.70
2023-03-07T08:08:04.703Z,-0.60
2023-03-07T08:10:38.343Z,-0.50
2023-03-07T08:13:15.354Z,-0.50
2023-03-07T08:15:46.537Z,-0.50
2023-03-07T08:18:13.878Z,-0.50
2023-03-07T08:20:41.496Z,-0.50
2023-03-07T08:23:12.189Z,-0.50
2023-03-07T08:25:42.695Z,-0.50
2023-03-07T08:28:09.794Z,-0.40
2023-03-07T08:30:43.770Z,-0.30
2023-03-07T08:33:10.715Z,-0.30
2023-03-07T08:35:41.993Z,-0.20
2023-03-07T08:38:10.170Z,-0.10
2023-03-07T08:40:37.351Z,-0.10
2023-03-07T08:43:04.505Z,-0.10
2023-03-07T08:45:35.081Z,0.00
2023-03-07T08:48:02.332Z,0.00
2023-03-07T08:50:29.694Z,0.00
2023-03-07T08:52:57.988Z,0.10
2023-03-07T08:55:25.123Z,0.10
2023-03-07T08:57:51.942Z,0.10
2023-03-07T09:00:19.210Z,0.20
2023-03-07T09:02:46.245Z,0.20
2023-03-07T09:05:12.938Z,0.20
2023-03-07T09:07:43.122Z,0.30
2023-03-07T09:10:11.824Z,0.30
2023-03-07T09:12:38.517Z,0.30
2023-03-07T09:15:05.760Z,0.30
2023-03-07T09:17:32.508Z,0.30
2023-03-07T09:19:59.676Z,0.40
2023-03-07T09:22:27.785Z,0.50
2023-03-07T09:24:54.561Z,0.60
2023-03-07T09:27:21.426Z,0.60
2023-03-07T09:29:48.342Z,0.60
2023-03-07T09:32:15.218Z,0.60
2023-03-07T09:34:42.324Z,0.60
2023-03-07T09:37:09.990Z,0.60
2023-03-07T09:39:36.971Z,0.60
2023-03-07T09:42:26.513Z,0.60
2023-03-07T09:45:17.233Z,0.60
2023-03-07T09:48:06.997Z,0.70
2023-03-07T09:50:54.968Z,0.80
2023-03-07T09:53:38.075Z,0.90
2023-03-07T09:56:11.586Z,1.00
2023-03-07T09:58:43.732Z,1.00
2023-03-07T10:01:13.328Z,1.10
2023-03-07T10:04:01.122Z,1.20
2023-03-07T10:06:39.314Z,1.40
2023-03-07T10:09:11.983Z,1.40
2023-03-07T10:11:57.264Z,1.50
2023-03-07T10:14:42.016Z,1.50
2023-03-07T10:17:17.611Z,1.40
2023-03-07T10:20:01.780Z,1.40
2023-03-07T10:22:42.879Z,1.40
2023-03-07T10:25:31.387Z,1.50
2023-03-07T10:28:25.842Z,1.50
2023-03-07T10:31:19.513Z,1.60
2023-03-07T10:33:49.168Z,1.70
2023-03-07T10:36:21.354Z,1.80
2023-03-07T10:39:28.671Z,1.80
2023-03-07T10:41:55.554Z,2.00
2023-03-07T10:44:23.269Z,2.10
2023-03-07T10:46:57.406Z,2.20
2023-03-07T10:49:39.064Z,2.20
2023-03-07T10:52:24.953Z,2.30
2023-03-07T10:54:51.921Z,2.30
2023-03-07T10:57:26.047Z,2.50
2023-03-07T10:59:52.831Z,2.60
2023-03-07T11:02:36.212Z,2.80
2023-03-07T11:05:19.937Z,2.90
2023-03-07T11:07:46.802Z,2.90
2023-03-07T11:10:36.859Z,3.00
2023-03-07T11:13:23.486Z,3.00
2023-03-07T11:15:57.929Z,3.00
2023-03-07T11:18:41.345Z,3.00
2023-03-07T11:21:28.110Z,3.00
2023-03-07T11:24:06.984Z,2.90
2023-03-07T11:26:39.838Z,2.90
2023-03-07T11:29:12.376Z,2.90
2023-03-07T11:32:05.861Z,2.80
2023-03-07T11:34:50.068Z,2.80
2023-03-07T11:37:41.390Z,2.90
2023-03-07T11:40:29.248Z,3.00
2023-03-07T11:43:10.739Z,3.00
2023-03-07T11:45:57.902Z,3.00
2023-03-07T11:48:47.873Z,2.90
2023-03-07T11:51:37.827Z,4.80
2023-03-07T11:54:11.251Z,2.90
2023-03-07T11:56:44.925Z,2.90
2023-03-07T11:59:17.032Z,2.90
2023-03-07T12:01:57.463Z,3.00
2023-03-07T12:04:42.139Z,4.80
2023-03-07T12:07:32.059Z,3.10
2023-03-07T12:10:29.949Z,3.00
2023-03-07T12:13:15.769Z,3.10
2023-03-07T12:16:03.078Z,3.10
2023-03-07T12:18:40.242Z,3.10
2023-03-07T12:21:42.960Z,3.20
2023-03-07T12:24:23.492Z,3.20
2023-03-07T12:27:14.810Z,3.20
2023-03-07T12:29:49.565Z,3.20
2023-03-07T12:32:36.337Z,3.20
2023-03-07T12:35:26.544Z,3.40
2023-03-07T12:38:10.190Z,2.90
2023-03-07T12:40:51.013Z,2.80
2023-03-07T12:43:42.525Z,2.70
2023-03-07T12:46:28.743Z,2.60
2023-03-07T12:49:25.263Z,2.60
2023-03-07T12:52:01.280Z,2.60
2023-03-07T12:54:34.003Z,2.50
2023-03-07T12:57:41.358Z,2.50
2023-03-07T13:00:13.325Z,2.40
2023-03-07T13:02:46.986Z,2.40
2023-03-07T13:05:21.984Z,2.30
2023-03-07T13:07:50.300Z,2.20
2023-03-07T13:10:20.788Z,2.10
2023-03-07T13:12:48.508Z,2.10
2023-03-07T13:15:18.235Z,2.10
2023-03-07T13:17:45.102Z,2.10
2023-03-07T13:20:14.955Z,2.10
2023-03-07T13:22:41.584Z,2.00
2023-03-07T13:25:24.858Z,2.00
2023-03-07T13:27:59.845Z,2.00
2023-03-07T13:30:32.410Z,2.00
2023-03-07T13:33:03.783Z,2.00
2023-03-07T13:35:33.893Z,2.00
2023-03-07T13:38:24.725Z,2.00
2023-03-07T13:40:53.497Z,1.90
2023-03-07T13:43:24.913Z,1.90
2023-03-07T13:45:54.079Z,1.80
2023-03-07T13:48:26.658Z,1.80
2023-03-07T13:50:56.080Z,1.70
2023-03-07T13:53:32.006Z,1.70
2023-03-07T13:56:13.438Z,1.70
2023-03-07T13:59:08.554Z,1.80
2023-03-07T14:01:54.244Z,1.80
2023-03-07T14:04:39.478Z,1.80
2023-03-07T14:07:32.025Z,1.80
2023-03-07T14:10:22.027Z,1.70
2023-03-07T14:13:27.402Z,1.70
2023-03-07T14:16:04.931Z,1.60
2023-03-07T14:18:49.409Z,1.60
2023-03-07T14:21:35.496Z,1.50
2023-03-07T14:24:31.322Z,1.50
2023-03-07T14:27:02.858Z,1.50
2023-03-07T14:29:30.975Z,1.40
2023-03-07T14:32:00.634Z,1.40
2023-03-07T14:34:35.862Z,1.30
2023-03-07T14:37:06.936Z,1.20
2023-03-07T14:39:58.672Z,1.10
2023-03-07T14:42:32.713Z,1.10
2023-03-07T14:45:26.341Z,1.00
2023-03-07T14:48:11.420Z,0.90
2023-03-07T14:50:44.095Z,0.90
2023-03-07T14:53:23.350Z,0.80
2023-03-07T14:55:52.732Z,0.80
2023-03-07T14:58:35.351Z,0.80
2023-03-07T15:01:12.125Z,0.70
2023-03-07T15:03:47.696Z,0.60
2023-03-07T15:06:18.197Z,0.60
2023-03-07T15:08:46.669Z,0.50
2023-03-07T15:11:43.384Z,0.50
2023-03-07T15:14:19.298Z,0.50
2023-03-07T15:16:50.445Z,0.50
2023-03-07T15:19:24.201Z,0.40
2023-03-07T15:21:57.957Z,0.40
2023-03-07T15:24:31.019Z,0.30
2023-03-07T15:27:00.026Z,0.30
2023-03-07T15:29:29.943Z,0.30
2023-03-07T15:32:08.195Z,2.00
2023-03-07T15:34:38.355Z,0.30
2023-03-07T15:37:32.834Z,0.20
2023-03-07T15:40:24.744Z,0.20
2023-03-07T15:42:57.371Z,0.20
2023-03-07T15:45:36.536Z,0.10
2023-03-07T15:48:26.394Z,0.10
2023-03-07T15:50:55.497Z,0.10
2023-03-07T15:53:35.263Z,0.00
2023-03-07T15:56:05.258Z,0.00
2023-03-07T15:58:37.305Z,0.10
2023-03-07T16:01:19.596Z,0.00
2023-03-07T16:03:53.142Z,0.00
2023-03-07T16:06:38.566Z,0.00
2023-03-07T16:09:06.966Z,-0.10
2023-03-07T16:11:35.010Z,-0.10
2023-03-07T16:14:03.355Z,-0.10
2023-03-07T16:16:31.658Z,-0.10
2023-03-07T16:18:58.638Z,-0.10
2023-03-07T16:21:26.749Z,-0.10
2023-03-07T16:23:53.557Z,-0.20
2023-03-07T16:26:23.183Z,-0.10
2023-03-07T16:28:51.806Z,-0.10
2023-03-07T16:31:19.202Z,-0.10
2023-03-07T16:33:47.065Z,-0.20
2023-03-07T16:36:15.459Z,-0.20
2023-03-07T16:38:42.430Z,-0.20
2023-03-07T16:41:21.463Z,-0.30
2023-03-07T16:43:56.767Z,-0.30
2023-03-07T16:46:24.880Z,0.00
2023-03-07T16:48:51.720Z,-0.40
2023-03-07T16:51:21.438Z,-0.40
2023-03-07T16:53:49.871Z,-0.40
2023-03-07T16:56:30.558Z,-0.40
2023-03-07T16:58:58.461Z,-0.40
2023-03-07T17:01:25.215Z,-0.40
2023-03-07T17:03:52.039Z,-0.40
2023-03-07T17:06:25.342Z,-0.40
2023-03-07T17:08:54.851Z,-0.50
2023-03-07T17:11:24.738Z,-0.40
2023-03-07T17:13:54.764Z,-0.40
2023-03-07T17:16:21.982Z,-0.40
2023-03-07T17:18:48.756Z,-0.40
2023-03-07T17:21:18.267Z,-0.50
2023-03-07T17:23:45.866Z,-0.50
2023-03-07T17:26:27.234Z,-0.50
2023-03-07T17:28:54.658Z,-0.50
2023-03-07T17:31:21.466Z,-0.50
2023-03-07T17:33:49.769Z,-0.50
2023-03-07T17:36:16.920Z,-0.60
2023-03-07T17:38:43.674Z,-0.60
2023-03-07T17:41:10.495Z,-0.60
2023-03-07T17:43:37.297Z,-0.60
2023-03-07T17:46:09.521Z,-0.60
2023-03-07T17:48:36.290Z,-0.60
2023-03-07T17:51:12.064Z,-0.60
2023-03-07T17:53:38.991Z,-0.60
2023-03-07T17:56:10.725Z,-0.60
2023-03-07T17:58:38.518Z,-0.60
2023-03-07T18:01:11.261Z,-0.60
2023-03-07T18:03:38.995Z,-0.60
2023-03-07T18:06:06.058Z,-0.60
2023-03-07T18:08:33.313Z,-0.60
2023-03-07T18:11:07.690Z,-0.60
2023-03-07T18:13:34.626Z,-0.60
2023-03-07T18:16:02.037Z,-0.60
2023-03-07T18:18:33.293Z,-0.70
2023-03-07T18:21:05.288Z,-0.70
2023-03-07T18:23:34.458Z,-0.70
2023-03-07T18:26:08.661Z,-0.70
2023-03-07T18:28:36.804Z,-0.70
2023-03-07T18:31:07.398Z,-0.70
2023-03-07T18:33:36.197Z,-0.80
2023-03-07T18:36:03.913Z,-0.80
2023-03-07T18:38:31.022Z,-0.90
2023-03-07T18:41:18.571Z,-0.90
2023-03-07T18:43:45.856Z,-1.00
2023-03-07T18:46:15.382Z,-1.00
2023-03-07T18:48:42.138Z,-1.00
2023-03-07T18:51:11.712Z,-1.10
2023-03-07T18:53:39.230Z,-1.20
2023-03-07T18:56:12.218Z,-1.20
2023-03-07T18:58:40.194Z,-1.30
2023-03-07T19:01:21.575Z,-1.30
2023-03-07T19:03:49.254Z,-1.30
2023-03-07T19:06:18.044Z,-1.40
2023-03-07T19:08:44.904Z,-1.40
2023-03-07T19:11:13.107Z,-1.50
2023-03-07T19:13:41.135Z,-1.50
2023-03-07T19:16:20.065Z,-1.50
2023-03-07T19:18:47.509Z,-1.50
2023-03-07T19:21:17.790Z,-1.60
2023-03-07T19:23:45.034Z,-1.60
2023-03-07T19:26:13.361Z,-1.60
2023-03-07T19:28:40.360Z,-1.70
2023-03-07T19:31:13.681Z,-1.70
2023-03-07T19:33:40.486Z,-1.70
2023-03-07T19:36:09.916Z,-1.80
2023-03-07T19:38:36.874Z,-1.80
2023-03-07T19:41:04.944Z,-1.80
2023-03-07T19:43:32.008Z,-1.80
2023-03-07T19:45:58.864Z,-1.80
2023-03-07T19:48:26.763Z,-1.80
2023-03-07T19:50:54.139Z,-1.80
2023-03-07T19:53:21.224Z,-1.80
2023-03-07T19:55:48.173Z,-1.90
2023-03-07T19:58:15.644Z,-1.90
2023-03-07T20:00:44.213Z,-1.90
2023-03-07T20:03:14.551Z,-1.90
2023-03-07T20:05:46.004Z,-2.00
2023-03-07T20:08:13.093Z,-1.90
2023-03-07T20:10:40.705Z,-2.00
2023-03-07T20:13:08.059Z,-2.00
2023-03-07T20:15:36.248Z,-2.10
2023-03-07T20:18:06.012Z,-2.10
2023-03-07T20:20:35.512Z,-2.10
2023-03-07T20:23:02.338Z,-2.10
2023-03-07T20:25:30.168Z,-2.20
2023-03-07T20:27:57.799Z,-2.20
2023-03-07T20:30:24.739Z,-2.20
2023-03-07T20:32:51.433Z,-2.20
2023-03-07T20:35:18.429Z,-2.20
2023-03-07T20:37:45.270Z,-2.30
2023-03-07T20:40:12.633Z,-2.30
2023-03-07T20:42:39.402Z,-2.30
2023-03-07T20:45:06.726Z,-2.40
2023-03-07T20:47:36.277Z,-2.40
2023-03-07T20:50:03.714Z,-2.40
2023-03-07T20:52:30.638Z,-2.40
2023-03-07T20:54:57.480Z,-1.70
2023-03-07T20:57:24.450Z,-2.40
2023-03-07T20:59:51.182Z,-2.20
2023-03-07T21:02:18.001Z,-2.40
2023-03-07T21:04:44.994Z,-2.40
2023-03-07T21:07:11.689Z,-2.50
2023-03-07T21:09:38.504Z,-2.50
2023-03-07T21:12:08.383Z,-2.50
2023-03-07T21:14:35.149Z,-2.50
2023-03-07T21:17:03.967Z,-2.50
2023-03-07T21:19:31.010Z,-2.60
2023-03-07T21:21:59.077Z,-2.60
2023-03-07T21:24:25.842Z,-2.60
2023-03-07T21:26:52.840Z,-2.70
2023-03-07T21:29:19.599Z,-2.70
2023-03-07T21:31:46.418Z,-2.70
2023-03-07T21:34:14.158Z,-2.60
2023-03-07T21:36:41.004Z,-2.20
2023-03-07T21:39:10.025Z,-2.70
2023-03-07T21:41:37.346Z,-2.70
2023-03-07T21:44:04.695Z,-2.60
2023-03-07T21:46:31.405Z,-2.70
2023-03-07T21:48:59.570Z,-2.70
2023-03-07T21:51:26.581Z,-2.70
2023-03-07T21:53:54.223Z,-2.70
2023-03-07T21:56:23.293Z,-2.70
2023-03-07T21:58:51.208Z,-2.60
2023-03-07T22:01:21.906Z,-2.60
2023-03-07T22:03:51.939Z,-2.60
2023-03-07T22:06:19.075Z,-2.60
2023-03-07T22:08:45.902Z,-2.60
2023-03-07T22:11:13.197Z,-2.50
2023-03-07T22:13:41.432Z,-2.50
2023-03-07T22:16:14.326Z,-2.60
2023-03-07T22:18:41.338Z,-2.60
2023-03-07T22:21:10.141Z,-2.50
2023-03-07T22:23:37.202Z,-2.50
2023-03-07T22:26:09.157Z,-2.50
2023-03-07T22:28:37.852Z,-2.50
2023-03-07T22:31:07.207Z,-2.50
2023-03-07T22:33:34.639Z,-2.50
2023-03-07T22:36:04.173Z,-2.50
2023-03-07T22:38:31.401Z,-2.50
2023-03-07T22:41:07.029Z,-2.50
2023-03-07T22:43:35.102Z,-2.50
2023-03-07T22:46:02.658Z,-2.50
2023-03-07T22:48:30.095Z,-2.50
2023-03-07T22:50:57.592Z,-2.50
2023-03-07T22:53:27.063Z,-1.90
2023-03-07T22:55:54.879Z,-2.40
2023-03-07T22:58:21.607Z,-1.40
2023-03-07T23:04:54.504Z,-2.60
2023-03-07T23:07:21.237Z,-2.60
2023-03-07T23:09:47.957Z,-2.70
2023-03-07T23:12:14.740Z,-2.70
2023-03-07T23:14:41.521Z,-2.70
2023-03-07T23:17:08.208Z,-2.70
2023-03-07T23:19:34.924Z,-2.80
2023-03-07T23:22:01.588Z,-2.80
2023-03-07T23:24:28.490Z,-2.80
2023-03-07T23:26:55.195Z,-2.80
2023-03-07T23:29:22.423Z,-2.90
2023-03-07T23:31:49.155Z,-2.90
2023-03-07T23:34:18.754Z,-2.90
2023-03-07T23:36:46.383Z,-2.90
2023-03-07T23:39:14.760Z,-2.90
2023-03-07T23:41:41.572Z,-2.90
2023-03-07T23:44:08.582Z,-2.90
2023-03-07T23:46:35.479Z,-2.90
2023-03-07T23:49:02.532Z,-3.00
2023-03-07T23:51:29.601Z,-3.00
2023-03-07T23:53:56.345Z,-3.10
2023-03-07T23:56:23.302Z,-3.10
2023-03-07T23:58:51.453Z,-3.10
